createdAt,value
2023-04-01T00:02:13.118Z,22.55
2023-04-01T00:04:51.201Z,26.00
2023-04-01T00:11:48.001Z,24.13
2023-04-01T00:18:18.247Z,25.20
2023-04-01T00:21:09.972Z,19.65
2023-04-01T00:34:00.154Z,19.92
2023-04-01T00:37:18.584Z,31.30
2023-04-01T00:40:37.161Z,26.73
2023-04-01T00:54:37.833Z,32.13
2023-04-01T00:58:23.630Z,26.67
2023-04-01T01:01:01.030Z,23.05
2023-04-01T01:03:34.597Z,21.88
2023-04-01T01:07:46.407Z,30.38
2023-04-01T01:10:51.716Z,23.13
2023-04-01T01:14:28.791Z,21.33
2023-04-01T01:17:45.291Z,15.13
2023-04-01T01:21:14.458Z,14.25
2023-04-01T01:24:22.137Z,18.40
2023-04-01T01:27:37.169Z,13.52
2023-04-01T01:34:05.904Z,10.40
2023-04-01T01:48:41.954Z,11.70
2023-04-01T01:51:21.886Z,9.75
2023-04-01T01:58:14.344Z,10.35
2023-04-01T02:00:35.716Z,9.23
2023-04-01T02:03:27.316Z,11.52
2023-04-01T02:06:01.493Z,9.00
2023-04-01T02:10:00.624Z,6.32
2023-04-01T02:12:14.817Z,7.75
2023-04-01T02:15:21.434Z,6.88
2023-04-01T02:18:27.061Z,7.07
2023-04-01T02:21:47.565Z,8.35
2023-04-01T02:24:34.760Z,10.30
2023-04-01T02:27:07.258Z,7.00
2023-04-01T02:29:51.050Z,11.68
2023-04-01T02:38:40.598Z,9.23
2023-04-01T02:41:55.831Z,8.52
2023-04-01T02:47:37.507Z,10.02
2023-04-01T02:50:36.285Z,9.25
2023-04-01T02:53:15.181Z,10.15
2023-04-01T02:59:12.912Z,7.00
2023-04-01T03:01:51.697Z,9.32
2023-04-01T03:07:41.343Z,10.05
2023-04-01T03:10:17.079Z,10.95
2023-04-01T03:12:45.096Z,9.65
2023-04-01T03:16:01.103Z,10.43
2023-04-01T03:22:20.995Z,25.10
2023-04-01T03:25:10.656Z,16.63
2023-04-01T03:28:06.039Z,19.45
2023-04-01T03:31:32.335Z,25.73
2023-04-01T03:34:31.428Z,24.58
2023-04-01T03:37:13.356Z,27.98
2023-04-01T03:39:47.733Z,27.48
2023-04-01T03:42:23.663Z,23.48
2023-04-01T03:48:16.770Z,22.60
2023-04-01T03:51:34.011Z,36.17
2023-04-01T04:00:59.414Z,21.35
2023-04-01T04:06:17.897Z,19.45
2023-04-01T04:10:30.479Z,16.35
2023-04-01T04:22:51.249Z,12.70
2023-04-01T04:53:23.722Z,11.52
2023-04-01T04:57:34.088Z,12.93
2023-04-01T05:02:46.904Z,11.15
2023-04-01T05:08:07.594Z,13.13
2023-04-01T05:17:23.231Z,8.70
2023-04-01T05:24:11.901Z,9.23
2023-04-01T05:41:03.278Z,12.20
2023-04-01T05:54:34.804Z,13.68
2023-04-01T06:01:10.421Z,12.27
2023-04-01T06:04:05.774Z,15.10
2023-04-01T06:07:42.338Z,13.93
2023-04-01T06:10:49.028Z,11.80
2023-04-01T06:19:21.198Z,8.07
2023-04-01T06:38:47.047Z,5.10
2023-04-01T06:42:02.847Z,4.95
2023-04-01T06:45:26.128Z,5.18
2023-04-01T06:48:34.321Z,5.38
2023-04-01T06:51:03.761Z,5.55
2023-04-01T06:53:43.681Z,5.78
2023-04-01T06:59:29.993Z,7.75
2023-04-01T07:02:20.617Z,6.57
2023-04-01T07:05:00.998Z,7.72
2023-04-01T07:12:41.153Z,7.88
2023-04-01T07:15:33.436Z,6.32
2023-04-01T07:18:19.315Z,10.05
2023-04-01T07:23:34.215Z,10.35
2023-04-01T07:26:22.026Z,9.00
2023-04-01T07:28:49.641Z,9.85
2023-04-01T07:31:29.628Z,9.98
2023-04-01T07:34:15.301Z,10.57
2023-04-01T07:37:05.147Z,11.50
2023-04-01T07:40:03.963Z,13.07
2023-04-01T07:42:34.591Z,13.25
2023-04-01T07:48:19.058Z,12.35
2023-04-01T07:51:07.151Z,10.85
2023-04-01T07:53:38.172Z,14.35
2023-04-01T07:56:13.530Z,14.77
2023-04-01T07:58:59.166Z,15.05
2023-04-01T08:01:50.782Z,14.20
2023-04-01T08:04:20.632Z,12.93
2023-04-01T08:09:45.974Z,14.32
2023-04-01T08:12:18.491Z,14.32
2023-04-01T08:14:54.402Z,14.57
2023-04-01T08:17:24.302Z,11.65
2023-04-01T08:22:49.261Z,11.27
2023-04-01T08:25:35.136Z,10.98
2023-04-01T08:28:14.437Z,12.75
2023-04-01T08:30:52.465Z,12.00
2023-04-01T08:33:26.369Z,15.07
2023-04-01T08:35:58.612Z,12.23
2023-04-01T08:41:40.878Z,14.23
2023-04-01T08:44:37.892Z,13.45
2023-04-01T08:47:31.014Z,11.23
2023-04-01T08:50:35.498Z,10.40
2023-04-01T08:53:16.466Z,13.50
2023-04-01T08:56:14.615Z,11.52
2023-04-01T08:59:22.589Z,10.55
2023-04-01T09:03:26.639Z,11.50
2023-04-01T09:14:48.219Z,6.20
2023-04-01T09:21:34.168Z,7.50
2023-04-01T09:24:35.916Z,6.47
2023-04-01T09:27:37.143Z,6.22
2023-04-01T09:34:25.297Z,7.22
2023-04-01T09:39:27.201Z,13.38
2023-04-01T09:45:32.232Z,8.88
2023-04-01T09:48:58.200Z,11.77
2023-04-01T10:00:02.029Z,11.35
2023-04-01T10:02:34.479Z,11.43
2023-04-01T10:05:28.380Z,13.55
2023-04-01T10:08:21.980Z,9.55
2023-04-01T10:11:16.345Z,11.15
2023-04-01T10:14:03.762Z,10.15
2023-04-01T10:16:55.617Z,10.80
2023-04-01T10:19:40.813Z,11.35
2023-04-01T10:22:25.805Z,11.20
2023-04-01T10:24:57.893Z,10.80
2023-04-01T10:27:38.354Z,8.85
2023-04-01T10:30:16.351Z,10.20
2023-04-01T10:32:48.960Z,9.77
2023-04-01T10:35:24.911Z,8.00
2023-04-01T10:40:37.202Z,9.15
2023-04-01T10:43:32.848Z,8.32
2023-04-01T10:46:17.086Z,7.60
2023-04-01T10:49:11.112Z,5.90
2023-04-01T10:51:58.875Z,6.18
2023-04-01T10:55:13.684Z,6.28
2023-04-01T10:58:17.680Z,7.93
2023-04-01T11:01:15.052Z,7.65
2023-04-01T11:04:17.400Z,6.95
2023-04-01T11:06:55.993Z,6.57
2023-04-01T11:09:59.930Z,6.15
2023-04-01T11:12:45.542Z,7.13
2023-04-01T11:15:32.521Z,6.75
2023-04-01T11:18:10.323Z,5.38
2023-04-01T11:21:01.702Z,6.38
2023-04-01T11:24:03.894Z,5.60
2023-04-01T11:26:51.251Z,5.22
2023-04-01T11:29:58.712Z,4.93
2023-04-01T11:32:49.456Z,5.40
2023-04-01T11:35:38.236Z,5.70
2023-04-01T11:38:36.096Z,6.18
2023-04-01T11:41:27.724Z,8.93
2023-04-01T11:44:09.358Z,7.75
2023-04-01T11:46:47.930Z,9.65
2023-04-01T11:49:35.879Z,8.27
2023-04-01T11:52:23.249Z,7.82
2023-04-01T11:55:34.448Z,8.80
2023-04-01T12:02:06.897Z,9.57
2023-04-01T12:09:49.428Z,9.43
2023-04-01T12:13:02.270Z,9.02
2023-04-01T12:16:44.265Z,9.23
2023-04-01T12:20:04.973Z,9.00
2023-04-01T12:23:28.198Z,11.82
2023-04-01T12:26:38.824Z,12.07
2023-04-01T12:29:08.719Z,12.15
2023-04-01T12:31:40.503Z,15.85
2023-04-01T12:34:14.699Z,14.85
2023-04-01T12:36:51.347Z,13.55
2023-04-01T12:39:52.982Z,12.32
2023-04-01T12:42:32.521Z,13.35
2023-04-01T12:45:03.434Z,12.02
2023-04-01T12:47:53.284Z,11.65
2023-04-01T12:50:27.790Z,11.75
2023-04-01T12:53:23.345Z,12.65
2023-04-01T12:56:02.256Z,8.27
2023-04-01T12:58:34.279Z,8.23
2023-04-01T13:01:37.333Z,9.05
2023-04-01T13:04:28.821Z,10.43
2023-04-01T13:06:58.218Z,11.65
2023-04-01T13:09:34.664Z,9.07
2023-04-01T13:12:38.886Z,9.95
2023-04-01T13:15:13.926Z,11.45
2023-04-01T13:18:18.023Z,9.75
2023-04-01T13:21:09.714Z,8.20
2023-04-01T13:24:02.596Z,9.13
2023-04-01T13:27:03.026Z,7.63
2023-04-01T13:29:38.450Z,5.63
2023-04-01T13:35:31.005Z,5.60
2023-04-01T13:38:04.804Z,6.28
2023-04-01T13:40:49.358Z,6.70
2023-04-01T13:44:00.167Z,7.30
2023-04-01T13:46:41.860Z,8.50
2023-04-01T13:49:34.884Z,9.02
2023-04-01T13:52:30.389Z,8.82
2023-04-01T13:55:18.209Z,9.35
2023-04-01T13:58:11.022Z,9.50
2023-04-01T14:04:38.658Z,12.00
2023-04-01T14:08:13.902Z,8.73
2023-04-01T14:11:18.186Z,7.93
2023-04-01T14:13:50.031Z,9.90
2023-04-01T14:16:58.526Z,9.52
2023-04-01T14:22:55.860Z,9.25
2023-04-01T14:25:49.511Z,9.00
2023-04-01T14:28:59.197Z,10.50
2023-04-01T14:46:20.601Z,7.88
2023-04-01T14:53:09.147Z,8.55
2023-04-01T14:55:44.991Z,8.15
2023-04-01T14:58:20.070Z,7.97
2023-04-01T15:08:03.119Z,6.35
2023-04-01T15:11:04.141Z,6.15
2023-04-01T15:13:35.894Z,6.97
2023-04-01T15:16:32.307Z,7.15
2023-04-01T15:22:20.742Z,7.35
2023-04-01T15:28:20.127Z,5.72
2023-04-01T15:31:33.635Z,8.15
2023-04-01T15:34:50.616Z,8.05
2023-04-01T15:37:23.285Z,7.35
2023-04-01T15:40:15.632Z,6.93
2023-04-01T15:43:35.246Z,6.85
2023-04-01T15:46:38.038Z,7.18
2023-04-01T15:49:19.661Z,7.60
2023-04-01T15:52:17.564Z,6.90
2023-04-01T15:55:40.953Z,6.50
2023-04-01T15:58:59.580Z,5.32
2023-04-01T16:01:50.877Z,4.15
2023-04-01T16:04:26.584Z,5.25
2023-04-01T16:07:31.192Z,4.88
2023-04-01T16:10:51.235Z,5.00
2023-04-01T16:17:59.840Z,4.15
2023-04-01T16:23:57.081Z,4.95
2023-04-01T16:26:45.438Z,4.43
2023-04-01T16:29:24.809Z,6.35
2023-04-01T16:32:05.176Z,4.13
2023-04-01T16:34:37.398Z,5.50
2023-04-01T16:37:18.363Z,5.07
2023-04-01T16:39:55.432Z,5.97
2023-04-01T16:42:53.921Z,6.32
2023-04-01T16:45:27.838Z,5.47
2023-04-01T16:47:57.742Z,11.38
2023-04-01T16:53:01.938Z,7.43
2023-04-01T16:55:47.052Z,7.05
2023-04-01T16:58:21.953Z,5.32
2023-04-01T17:00:57.101Z,5.20
2023-04-01T17:03:38.799Z,5.65
2023-04-01T17:06:36.246Z,4.55
2023-04-01T17:09:32.144Z,4.85
2023-04-01T17:12:26.084Z,4.93
2023-04-01T17:14:53.334Z,4.43
2023-04-01T17:17:27.843Z,4.05
2023-04-01T17:20:17.317Z,3.95
2023-04-01T17:22:57.946Z,3.72
2023-04-01T17:25:51.145Z,4.70
2023-04-01T17:28:17.464Z,3.47
2023-04-01T17:30:56.317Z,4.22
2023-04-01T17:33:59.201Z,4.30
2023-04-01T17:36:54.641Z,4.03
2023-04-01T17:39:23.919Z,4.18
2023-04-01T17:42:22.089Z,4.25
2023-04-01T17:44:54.526Z,5.05
2023-04-01T17:47:51.427Z,4.13
2023-04-01T17:50:36.821Z,5.95
2023-04-01T17:53:27.598Z,5.70
2023-04-01T17:56:07.907Z,5.70
2023-04-01T17:59:02.091Z,4.40
2023-04-01T18:01:47.786Z,4.93
2023-04-01T18:04:26.408Z,4.95
2023-04-01T18:07:02.188Z,5.70
2023-04-01T18:09:40.878Z,4.53
2023-04-01T18:12:07.333Z,4.30
2023-04-01T18:14:56.013Z,5.22
2023-04-01T18:17:26.390Z,5.82
2023-04-01T18:20:17.752Z,4.75
2023-04-01T18:22:46.972Z,5.18
2023-04-01T18:25:19.747Z,4.68
2023-04-01T18:28:23.531Z,4.90
2023-04-01T18:30:56.872Z,4.72
2023-04-01T18:33:44.271Z,5.63
2023-04-01T18:36:19.184Z,5.75
2023-04-01T18:38:58.198Z,5.80
2023-04-01T18:41:42.242Z,6.72
2023-04-01T18:44:39.791Z,6.53
2023-04-01T18:47:31.036Z,5.65
2023-04-01T18:50:12.955Z,9.60
2023-04-01T18:52:42.742Z,5.82
2023-04-01T18:55:15.250Z,6.35
2023-04-01T18:57:51.685Z,6.90
2023-04-01T19:00:23.672Z,5.97
2023-04-01T19:03:12.058Z,7.00
2023-04-01T19:05:41.249Z,8.35
2023-04-01T19:08:31.360Z,7.60
2023-04-01T19:11:10.141Z,9.35
2023-04-01T19:13:43.770Z,8.20
2023-04-01T19:16:25.748Z,10.27
2023-04-01T19:18:55.360Z,9.32
2023-04-01T19:21:41.149Z,6.97
2023-04-01T19:24:25.287Z,8.20
2023-04-01T19:27:01.858Z,9.43
2023-04-01T19:29:40.621Z,8.77
2023-04-01T19:32:16.766Z,10.25
2023-04-01T19:37:42.198Z,9.50
2023-04-01T19:40:35.003Z,10.18
2023-04-01T19:43:11.579Z,9.43
2023-04-01T19:45:53.302Z,11.68
2023-04-01T19:48:57.336Z,10.65
2023-04-01T19:51:31.189Z,10.02
2023-04-01T19:54:20.395Z,9.68
2023-04-01T19:57:22.314Z,10.02
2023-04-01T19:59:53.116Z,7.97
2023-04-01T20:02:39.338Z,10.07
2023-04-01T20:05:20.241Z,8.52
2023-04-01T20:07:56.580Z,8.80
2023-04-01T20:10:36.475Z,8.65
2023-04-01T20:13:15.108Z,10.55
2023-04-01T20:15:47.736Z,8.88
2023-04-01T20:18:21.141Z,8.73
2023-04-01T20:20:56.752Z,10.00
2023-04-01T20:23:40.259Z,8.95
2023-04-01T20:26:13.936Z,10.10
2023-04-01T20:28:49.602Z,10.38
2023-04-01T20:31:37.777Z,12.15
2023-04-01T20:34:33.468Z,7.72
2023-04-01T20:37:21.958Z,7.60
2023-04-01T20:40:09.903Z,9.30
2023-04-01T20:42:55.124Z,9.85
2023-04-01T20:45:29.267Z,7.63
2023-04-01T20:48:20.047Z,8.00
2023-04-01T20:51:11.064Z,8.38
2023-04-01T20:53:44.035Z,8.20
2023-04-01T20:56:16.755Z,7.90
2023-04-01T20:58:49.382Z,6.38
2023-04-01T21:01:24.236Z,6.80
2023-04-01T21:04:01.458Z,6.57
2023-04-01T21:06:33.809Z,7.25
2023-04-01T21:09:21.865Z,7.50
2023-04-01T21:12:16.366Z,8.15
2023-04-01T21:15:00.119Z,7.63
2023-04-01T21:17:45.402Z,7.78
2023-04-01T21:20:36.816Z,7.80
2023-04-01T21:23:24.574Z,8.85
2023-04-01T21:26:35.591Z,7.82
2023-04-01T21:29:26.447Z,9.05
2023-04-01T21:31:58.822Z,9.10
2023-04-01T21:34:46.960Z,10.35
2023-04-01T21:37:44.416Z,9.63
2023-04-01T21:40:48.083Z,8.68
2023-04-01T21:43:39.480Z,7.63
2023-04-01T21:46:24.273Z,10.60
2023-04-01T21:49:09.590Z,9.40
2023-04-01T21:51:43.420Z,9.35
2023-04-01T21:54:41.098Z,9.02
2023-04-01T21:57:41.602Z,9.80
2023-04-01T22:00:16.944Z,9.57
2023-04-01T22:02:55.578Z,10.10
2023-04-01T22:05:32.377Z,11.38
2023-04-01T22:08:04.918Z,11.50
2023-04-01T22:10:42.866Z,11.20
2023-04-01T22:13:39.487Z,10.82
2023-04-01T22:16:10.402Z,13.13
2023-04-01T22:19:01.517Z,10.18
2023-04-01T22:21:42.083Z,12.98
2023-04-01T22:24:25.337Z,11.15
2023-04-01T22:27:21.123Z,10.05
2023-04-01T22:30:02.916Z,11.65
2023-04-01T22:32:30.473Z,12.07
2023-04-01T22:35:05.867Z,11.05
2023-04-01T22:37:56.370Z,13.48
2023-04-01T22:40:27.875Z,9.10
2023-04-01T22:42:59.028Z,10.70
2023-04-01T22:45:44.376Z,12.40
2023-04-01T22:48:22.247Z,12.50
2023-04-01T22:50:51.694Z,12.75
2023-04-01T22:53:30.823Z,10.70
2023-04-01T22:56:01.101Z,12.40
2023-04-01T22:58:34.204Z,11.73
2023-04-01T23:01:04.674Z,10.90
2023-04-01T23:03:32.608Z,10.00
2023-04-01T23:06:01.120Z,13.18
2023-04-01T23:09:00.708Z,12.70
2023-04-01T23:11:36.431Z,9.32
2023-04-01T23:14:27.758Z,12.82
2023-04-01T23:17:08.697Z,12.75
2023-04-01T23:19:44.678Z,14.63
2023-04-01T23:22:21.016Z,12.43
2023-04-01T23:27:52.334Z,12.15
2023-04-01T23:30:40.765Z,13.68
2023-04-01T23:33:30.996Z,14.25
2023-04-01T23:36:08.495Z,13.77
2023-04-01T23:38:36.982Z,13.48
2023-04-01T23:41:04.265Z,13.48
2023-04-01T23:43:41.905Z,13.23
2023-04-01T23:46:08.647Z,14.65
2023-04-01T23:48:39.826Z,14.38
2023-04-01T23:51:15.762Z,13.00
2023-04-01T23:53:45.706Z,15.52
2023-04-01T23:56:12.126Z,15.77
2023-04-01T23:58:38.433Z,13.00
